createdAt,value
2023-11-18T00:00:21.576Z,96451.14
2023-11-18T00:02:48.029Z,96451.61
2023-11-18T00:05:17.460Z,96455.70
2023-11-18T00:07:43.885Z,96454.93
2023-11-18T00:10:10.895Z,96448.05
2023-11-18T00:12:43.290Z,96456.73
2023-11-18T00:15:11.616Z,96454.89
2023-11-18T00:17:38.821Z,96457.48
2023-11-18T00:20:13.186Z,96457.94
2023-11-18T00:22:40.599Z,96459.16
2023-11-18T00:25:10.426Z,96463.53
2023-11-18T00:27:39.871Z,96461.52
2023-11-18T00:30:09.095Z,96462.21
2023-11-18T00:32:36.457Z,96458.35
2023-11-18T00:35:05.633Z,96459.19
2023-11-18T00:37:32.239Z,96461.50
2023-11-18T00:39:58.746Z,96458.18
2023-11-18T00:42:25.084Z,96465.95
2023-11-18T00:44:51.440Z,96465.41
2023-11-18T00:47:17.948Z,96467.64
2023-11-18T00:49:44.687Z,96466.11
2023-11-18T00:52:11.074Z,96463.63
2023-11-18T00:54:37.578Z,96472.89
2023-11-18T00:57:04.450Z,96473.66
2023-11-18T00:59:30.787Z,96475.65
2023-11-18T01:01:57.247Z,96474.10
2023-11-18T01:04:23.627Z,96472.95
2023-11-18T01:06:52.404Z,96473.58
2023-11-18T01:09:18.820Z,96471.33
2023-11-18T01:12:07.150Z,96477.88
2023-11-18T01:14:31.766Z,96481.03
2023-11-18T01:16:58.194Z,96486.96
2023-11-18T01:19:24.731Z,96480.96
2023-11-18T01:21:54.238Z,96477.19
2023-11-18T01:24:21.140Z,96474.23
2023-11-18T01:26:47.493Z,96488.20
2023-11-18T01:29:14.295Z,96485.13
2023-11-18T01:31:51.763Z,96491.13
2023-11-18T01:34:23.135Z,96494.91
2023-11-18T01:36:50.561Z,96496.83
2023-11-18T01:39:18.808Z,96499.75
2023-11-18T01:41:46.361Z,96499.29
2023-11-18T01:44:14.740Z,96497.83
2023-11-18T01:46:46.115Z,96504.60
2023-11-18T01:49:14.838Z,96502.83
2023-11-18T01:51:42.922Z,96506.91
2023-11-18T01:54:09.442Z,96509.20
2023-11-18T01:56:35.826Z,96513.50
2023-11-18T01:59:04.461Z,96504.76
2023-11-18T02:01:31.674Z,96514.86
2023-11-18T02:03:58.240Z,96511.77
2023-11-18T02:06:24.662Z,96512.71
2023-11-18T02:08:51.082Z,96511.70
2023-11-18T02:13:44.033Z,96512.24
2023-11-18T02:16:10.563Z,96513.05
2023-11-18T02:18:37.088Z,96505.02
2023-11-18T02:21:03.846Z,96515.93
2023-11-18T02:23:30.248Z,96515.49
2023-11-18T02:25:56.785Z,96516.58
2023-11-18T02:28:23.585Z,96516.95
2023-11-18T02:30:51.407Z,96515.98
2023-11-18T02:33:27.987Z,96517.08
2023-11-18T02:35:58.286Z,96515.63
2023-11-18T02:38:30.797Z,96513.56
2023-11-18T02:40:58.049Z,96514.13
2023-11-18T02:43:25.573Z,96513.70
2023-11-18T02:45:52.389Z,96513.33
2023-11-18T02:48:19.236Z,96499.69
2023-11-18T02:50:45.582Z,96502.91
2023-11-18T02:53:12.048Z,96517.75
2023-11-18T02:55:38.454Z,96517.91
2023-11-18T02:58:06.960Z,96507.17
2023-11-18T03:00:34.571Z,96518.45
2023-11-18T03:03:01.121Z,96516.77
2023-11-18T03:05:27.549Z,96503.75
2023-11-18T03:07:55.857Z,96518.55
2023-11-18T03:10:22.636Z,96517.70
2023-11-18T03:12:49.852Z,96520.94
2023-11-18T03:15:19.746Z,96524.79
2023-11-18T03:17:52.798Z,96528.88
2023-11-18T03:20:23.966Z,96516.45
2023-11-18T03:22:52.106Z,96537.19
2023-11-18T03:25:20.306Z,96541.20
2023-11-18T03:27:46.751Z,96537.59
2023-11-18T03:30:13.243Z,96537.12
2023-11-18T03:32:41.015Z,96539.45
2023-11-18T03:35:09.805Z,96541.21
2023-11-18T03:37:39.789Z,96545.98
2023-11-18T03:40:10.541Z,96544.55
2023-11-18T03:42:38.168Z,96534.34
2023-11-18T03:45:05.419Z,96552.23
2023-11-18T03:47:32.124Z,96550.23
2023-11-18T03:49:58.787Z,96552.00
2023-11-18T03:52:25.282Z,96555.47
2023-11-18T03:54:51.631Z,96563.32
2023-11-18T03:57:18.018Z,96566.11
2023-11-18T03:59:44.382Z,96567.35
2023-11-18T04:02:12.359Z,96569.03
2023-11-18T04:04:39.244Z,96572.20
2023-11-18T04:07:05.671Z,96575.66
2023-11-18T04:09:32.030Z,96575.36
2023-11-18T04:11:59.501Z,96573.83
2023-11-18T04:14:26.825Z,96568.38
2023-11-18T04:16:53.299Z,96559.30
2023-11-18T04:19:19.772Z,96561.83
2023-11-18T04:21:50.133Z,96559.52
2023-11-18T04:24:16.592Z,96563.29
2023-11-18T04:26:43.044Z,96563.89
2023-11-18T04:29:09.485Z,96564.42
2023-11-18T04:31:35.893Z,96561.56
2023-11-18T04:34:02.246Z,96568.17
2023-11-18T04:36:30.057Z,96564.78
2023-11-18T04:38:56.408Z,96563.48
2023-11-18T04:41:24.248Z,96561.09
2023-11-18T04:43:51.259Z,96562.00
2023-11-18T04:46:17.682Z,96555.99
2023-11-18T04:48:44.192Z,96555.53
2023-11-18T04:51:10.956Z,96546.24
2023-11-18T04:53:37.333Z,96550.46
2023-11-18T04:56:04.212Z,96556.77
2023-11-18T04:58:30.726Z,96549.79
2023-11-18T05:00:57.840Z,96560.38
2023-11-18T05:03:25.430Z,96560.84
2023-11-18T05:05:54.460Z,96563.36
2023-11-18T05:08:22.882Z,96564.90
2023-11-18T05:10:50.025Z,96562.89
2023-11-18T05:13:17.576Z,96562.80
2023-11-18T05:15:46.262Z,96567.34
2023-11-18T05:18:16.634Z,96574.05
2023-11-18T05:20:43.613Z,96573.02
2023-11-18T05:23:12.937Z,96568.17
2023-11-18T05:25:44.305Z,96542.66
2023-11-18T05:28:10.903Z,96528.35
2023-11-18T05:30:38.536Z,96549.05
2023-11-18T05:33:08.477Z,96542.05
2023-11-18T05:35:36.130Z,96544.25
2023-11-18T05:38:04.278Z,96546.33
2023-11-18T05:40:31.127Z,96547.63
2023-11-18T05:42:58.728Z,96539.35
2023-11-18T05:45:33.222Z,96547.46
2023-11-18T05:47:59.877Z,96548.84
2023-11-18T05:50:26.844Z,96541.94
2023-11-18T05:52:55.006Z,96550.51
2023-11-18T05:55:21.621Z,96556.73
2023-11-18T05:57:48.537Z,96559.34
2023-11-18T06:00:25.465Z,96553.36
2023-11-18T06:02:57.327Z,96570.17
2023-11-18T06:05:27.367Z,96572.65
2023-11-18T06:07:54.653Z,96581.14
2023-11-18T06:10:21.608Z,96584.38
2023-11-18T06:12:48.112Z,96591.38
2023-11-18T06:15:15.604Z,96595.61
2023-11-18T06:17:45.129Z,96596.30
2023-11-18T06:20:11.838Z,96596.62
2023-11-18T06:22:38.256Z,96596.00
2023-11-18T06:25:08.602Z,96594.14
2023-11-18T06:27:34.954Z,96596.08
2023-11-18T06:30:01.392Z,96599.69
2023-11-18T06:32:27.945Z,96601.39
2023-11-18T06:34:54.530Z,96596.92
2023-11-18T06:37:21.037Z,96602.33
2023-11-18T06:39:48.797Z,96605.78
2023-11-18T06:42:15.453Z,96601.77
2023-11-18T06:44:41.988Z,96600.30
2023-11-18T06:47:08.529Z,96598.69
2023-11-18T06:49:35.556Z,96595.14
2023-11-18T06:52:04.661Z,96590.75
2023-11-18T06:54:34.267Z,96593.68
2023-11-18T06:57:00.675Z,96595.06
2023-11-18T06:59:27.036Z,96594.67
2023-11-18T07:01:53.766Z,96597.77
2023-11-18T07:04:20.276Z,96605.86
2023-11-18T07:06:46.986Z,96603.02
2023-11-18T07:09:14.809Z,96603.31
2023-11-18T07:11:42.001Z,96603.91
2023-11-18T07:14:10.376Z,96603.67
2023-11-18T07:16:36.938Z,96598.13
2023-11-18T07:19:06.064Z,96606.53
2023-11-18T07:21:32.522Z,96606.52
2023-11-18T07:23:58.982Z,96605.67
2023-11-18T07:26:25.399Z,96605.52
2023-11-18T07:28:52.841Z,96607.98
2023-11-18T07:31:19.910Z,96609.20
2023-11-18T07:33:50.207Z,96597.45
2023-11-18T07:36:17.417Z,96612.82
2023-11-18T07:38:43.837Z,96612.81
2023-11-18T07:41:10.596Z,96613.91
2023-11-18T07:43:37.881Z,96618.75
2023-11-18T07:46:04.922Z,96623.98
2023-11-18T07:48:32.387Z,96624.31
2023-11-18T07:50:58.799Z,96626.55
2023-11-18T07:53:25.205Z,96621.88
2023-11-18T07:55:51.679Z,96623.88
2023-11-18T07:58:19.666Z,96619.27
2023-11-18T08:00:48.991Z,96621.41
2023-11-18T08:03:15.784Z,96619.49
2023-11-18T08:05:44.752Z,96610.40
2023-11-18T08:08:11.984Z,96611.64
2023-11-18T08:10:39.415Z,96624.41
2023-11-18T08:13:09.349Z,96623.65
2023-11-18T08:15:36.608Z,96628.73
2023-11-18T08:18:04.237Z,96605.38
2023-11-18T08:20:31.608Z,96616.58
2023-11-18T08:22:58.026Z,96618.71
2023-11-18T08:25:24.452Z,96615.79
2023-11-18T08:27:51.214Z,96616.02
2023-11-18T08:30:19.020Z,96618.27
2023-11-18T08:32:46.203Z,96622.50
2023-11-18T08:35:16.771Z,96630.96
2023-11-18T08:37:43.760Z,96636.98
2023-11-18T08:40:16.557Z,96634.63
2023-11-18T08:42:49.183Z,96645.48
2023-11-18T08:45:30.363Z,96646.02
2023-11-18T08:47:57.464Z,96639.95
2023-11-18T08:50:27.308Z,96628.34
2023-11-18T08:52:59.474Z,96626.33
2023-11-18T08:55:52.371Z,96621.94
2023-11-18T08:58:29.460Z,96611.11
2023-11-18T09:01:06.995Z,96621.09
2023-11-18T09:03:37.041Z,96627.02
2023-11-18T09:06:06.360Z,96612.34
2023-11-18T09:08:39.818Z,96620.08
2023-11-18T09:11:08.459Z,96611.98
2023-11-18T09:13:35.932Z,96610.83
2023-11-18T09:16:04.524Z,96617.30
2023-11-18T09:18:33.391Z,96621.85
2023-11-18T09:21:02.035Z,96614.84
2023-11-18T09:23:28.562Z,96616.85
2023-11-18T09:25:55.058Z,96620.01
2023-11-18T09:28:22.131Z,96622.02
2023-11-18T09:30:51.144Z,96617.41
2023-11-18T09:33:26.588Z,96614.48
2023-11-18T09:35:56.915Z,96616.43
2023-11-18T09:38:23.622Z,96619.98
2023-11-18T09:40:50.604Z,96622.22
2023-11-18T09:43:18.031Z,96624.91
2023-11-18T09:45:46.489Z,96624.77
2023-11-18T09:48:14.216Z,96619.15
2023-11-18T09:50:42.640Z,96616.85
2023-11-18T09:53:12.184Z,96615.47
2023-11-18T09:55:54.923Z,96613.39
2023-11-18T09:58:25.086Z,96614.39
2023-11-18T10:00:52.081Z,96621.10
2023-11-18T10:03:18.559Z,96624.40
2023-11-18T10:05:44.964Z,96619.78
2023-11-18T10:08:11.420Z,96615.10
2023-11-18T10:10:38.477Z,96606.09
2023-11-18T10:13:09.517Z,96605.23
2023-11-18T10:15:35.977Z,96602.54
2023-11-18T10:18:10.854Z,96591.16
2023-11-18T10:20:40.935Z,96599.76
2023-11-18T10:23:11.293Z,96594.84
2023-11-18T10:25:54.135Z,96588.98
2023-11-18T10:28:34.885Z,96583.52
2023-11-18T10:31:05.507Z,96579.90
2023-11-18T10:33:38.352Z,96583.98
2023-11-18T10:36:06.206Z,96581.08
2023-11-18T10:38:34.656Z,96573.08
2023-11-18T10:41:03.903Z,96572.01
2023-11-18T10:43:30.414Z,96553.98
2023-11-18T10:46:13.614Z,96564.15
2023-11-18T10:48:43.847Z,96565.69
2023-11-18T10:51:12.750Z,96573.02
2023-11-18T10:53:40.796Z,96580.55
2023-11-18T10:56:07.964Z,96582.16
2023-11-18T10:58:38.356Z,96586.48
2023-11-18T11:01:06.481Z,96572.35
2023-11-18T11:03:37.116Z,96587.71
2023-11-18T11:06:19.243Z,96584.95
2023-11-18T11:08:45.684Z,96583.80
2023-11-18T11:11:17.374Z,96582.17
2023-11-18T11:13:45.394Z,96579.09
2023-11-18T11:16:11.792Z,96580.25
2023-11-18T11:18:40.209Z,96580.27
2023-11-18T11:21:17.967Z,96581.48
2023-11-18T11:23:55.044Z,96573.05
2023-11-18T11:26:31.998Z,96585.20
2023-11-18T11:29:30.202Z,96583.51
2023-11-18T11:32:04.593Z,96592.52
2023-11-18T11:34:32.407Z,96588.53
2023-11-18T11:37:00.373Z,96593.29
2023-11-18T11:39:27.312Z,96603.77
2023-11-18T11:41:57.335Z,96598.77
2023-11-18T11:44:31.067Z,96591.38
2023-11-18T11:47:01.441Z,96589.45
2023-11-18T11:49:30.798Z,96586.45
2023-11-18T11:52:23.819Z,96566.92
2023-11-18T11:54:57.666Z,96567.06
2023-11-18T11:57:24.155Z,96566.20
2023-11-18T11:59:54.222Z,96567.36
2023-11-18T12:02:30.467Z,96561.45
2023-11-18T12:04:59.449Z,96556.84
2023-11-18T12:07:28.236Z,96554.46
2023-11-18T12:09:58.944Z,96554.16
2023-11-18T12:12:28.381Z,96554.08
2023-11-18T12:15:01.461Z,96548.85
2023-11-18T12:17:33.283Z,96552.70
2023-11-18T12:20:00.747Z,96547.50
2023-11-18T12:22:28.004Z,96540.45
2023-11-18T12:24:58.553Z,96544.27
2023-11-18T12:27:52.435Z,96551.17
2023-11-18T12:30:28.340Z,96541.95
2023-11-18T12:32:59.852Z,96535.11
2023-11-18T12:35:28.514Z,96527.95
2023-11-18T12:38:14.351Z,96515.59
2023-11-18T12:40:57.304Z,96521.19
2023-11-18T12:44:08.636Z,96519.57
2023-11-18T12:46:47.160Z,96510.27
2023-11-18T12:49:17.479Z,96511.64
2023-11-18T12:51:46.835Z,96506.58
2023-11-18T12:54:13.284Z,96499.36
2023-11-18T12:56:40.067Z,96498.73
2023-11-18T12:59:07.622Z,96486.60
2023-11-18T13:01:37.212Z,96488.49
2023-11-18T13:04:04.193Z,96491.42
2023-11-18T13:06:30.774Z,96499.20
2023-11-18T13:08:57.398Z,96500.89
2023-11-18T13:11:24.933Z,96480.77
2023-11-18T13:13:54.725Z,96485.51
2023-11-18T13:16:22.724Z,96480.66
2023-11-18T13:18:52.819Z,96479.20
2023-11-18T13:21:20.354Z,96479.44
2023-11-18T13:23:51.125Z,96477.59
2023-11-18T13:26:17.636Z,96472.20
2023-11-18T13:28:47.049Z,96468.59
2023-11-18T13:31:17.525Z,96460.52
2023-11-18T13:33:44.544Z,96458.05
2023-11-18T13:36:11.348Z,96452.98
2023-11-18T13:38:38.701Z,96460.66
2023-11-18T13:41:05.448Z,96460.34
2023-11-18T13:43:44.807Z,96459.43
2023-11-18T13:46:13.508Z,96454.27
2023-11-18T13:48:43.089Z,96455.57
2023-11-18T13:51:13.874Z,96452.19
2023-11-18T13:53:42.012Z,96458.17
2023-11-18T13:56:10.073Z,96460.48
2023-11-18T13:58:39.495Z,96460.55
2023-11-18T14:01:08.628Z,96459.41
2023-11-18T14:03:38.541Z,96459.32
2023-11-18T14:06:11.407Z,96453.79
2023-11-18T14:08:38.486Z,96448.40
2023-11-18T14:13:32.130Z,96442.92
2023-11-18T14:16:00.499Z,96440.54
2023-11-18T14:18:27.223Z,96441.08
2023-11-18T14:20:53.836Z,96443.08
2023-11-18T14:23:20.262Z,96447.68
2023-11-18T14:25:47.020Z,96450.38
2023-11-18T14:28:14.028Z,96437.02
2023-11-18T14:30:41.168Z,96439.91
2023-11-18T14:33:10.839Z,96433.67
2023-11-18T14:35:37.484Z,96431.66
2023-11-18T14:38:03.987Z,96425.36
2023-11-18T14:40:30.422Z,96417.81
2023-11-18T14:42:56.899Z,96417.30
2023-11-18T14:45:23.353Z,96413.90
2023-11-18T14:47:50.195Z,96418.97
2023-11-18T14:50:24.746Z,96433.90
2023-11-18T14:52:53.094Z,96443.38
2023-11-18T14:55:19.634Z,96435.98
2023-11-18T14:57:46.129Z,96428.90
2023-11-18T15:00:23.877Z,96411.87
2023-11-18T15:02:51.238Z,96415.60
2023-11-18T15:05:21.499Z,96409.29
2023-11-18T15:07:48.971Z,96403.21
2023-11-18T15:10:23.296Z,96393.48
2023-11-18T15:12:51.513Z,96398.75
2023-11-18T15:15:19.622Z,96390.49
2023-11-18T15:17:48.425Z,96402.92
2023-11-18T15:20:19.404Z,96394.85
2023-11-18T15:22:46.393Z,96369.91
2023-11-18T15:25:13.877Z,96377.09
2023-11-18T15:27:41.727Z,96371.48
2023-11-18T15:30:11.449Z,96366.18
2023-11-18T15:32:40.322Z,96359.27
2023-11-18T15:35:10.441Z,96357.89
2023-11-18T15:37:37.936Z,96339.69
2023-11-18T15:40:12.037Z,96352.72
2023-11-18T15:42:40.171Z,96346.58
2023-11-18T15:45:13.689Z,96341.88
2023-11-18T15:47:40.600Z,96329.27
2023-11-18T15:50:07.509Z,96324.96
2023-11-18T15:52:35.419Z,96326.42
2023-11-18T15:55:03.747Z,96335.59
2023-11-18T15:57:30.303Z,96346.97
2023-11-18T15:59:57.021Z,96344.90
2023-11-18T16:02:23.765Z,96336.80
2023-11-18T16:04:50.218Z,96344.27
2023-11-18T16:07:16.601Z,96346.05
2023-11-18T16:09:42.942Z,96355.59
2023-11-18T16:12:09.360Z,96355.13
2023-11-18T16:14:36.799Z,96359.67
2023-11-18T16:17:03.559Z,96355.63
2023-11-18T16:19:29.950Z,96360.06
2023-11-18T16:21:56.381Z,96356.77
2023-11-18T16:24:22.782Z,96346.70
2023-11-18T16:26:49.232Z,96343.56
2023-11-18T16:29:15.756Z,96332.25
2023-11-18T16:31:42.198Z,96322.64
2023-11-18T16:34:09.621Z,96312.80
2023-11-18T16:36:36.089Z,96311.64
2023-11-18T16:39:02.450Z,96309.36
2023-11-18T16:41:40.816Z,96316.64
2023-11-18T16:44:11.880Z,96309.50
2023-11-18T16:46:40.984Z,96310.41
2023-11-18T16:49:08.144Z,96312.11
2023-11-18T16:51:34.956Z,96319.88
2023-11-18T16:54:01.909Z,96321.73
2023-11-18T16:56:29.796Z,96328.68
2023-11-18T16:58:56.265Z,96320.73
2023-11-18T17:01:25.506Z,96315.04
2023-11-18T17:03:52.504Z,96324.80
2023-11-18T17:06:21.245Z,96333.13
2023-11-18T17:08:48.685Z,96335.94
2023-11-18T17:11:16.159Z,96340.50
2023-11-18T17:13:42.567Z,96353.30
2023-11-18T17:16:09.109Z,96357.52
2023-11-18T17:18:35.536Z,96363.52
2023-11-18T17:21:01.979Z,96362.30
2023-11-18T17:23:28.439Z,96365.54
2023-11-18T17:25:56.636Z,96358.16
2023-11-18T17:28:23.231Z,96353.70
2023-11-18T17:30:49.639Z,96350.69
2023-11-18T17:33:16.446Z,96346.54
2023-11-18T17:35:44.063Z,96350.61
2023-11-18T17:38:10.645Z,96351.62
2023-11-18T17:40:37.033Z,96348.70
2023-11-18T17:43:05.172Z,96348.09
2023-11-18T17:45:31.627Z,96335.21
2023-11-18T17:47:57.994Z,96341.59
2023-11-18T17:50:25.461Z,96343.52
2023-11-18T17:52:52.259Z,96338.27
2023-11-18T17:55:19.266Z,96336.42
2023-11-18T17:57:45.986Z,96337.45
2023-11-18T18:00:13.843Z,96338.63
2023-11-18T18:02:40.901Z,96337.77
2023-11-18T18:05:13.389Z,96332.48
2023-11-18T18:07:40.564Z,96332.93
2023-11-18T18:10:07.554Z,96328.67
2023-11-18T18:12:34.113Z,96325.95
2023-11-18T18:15:01.076Z,96327.98
2023-11-18T18:17:27.741Z,96327.95
2023-11-18T18:19:54.167Z,96331.02
2023-11-18T18:22:20.565Z,96327.20
2023-11-18T18:24:47.812Z,96331.18
2023-11-18T18:27:14.216Z,96326.73
2023-11-18T18:29:40.616Z,96316.13
2023-11-18T18:32:09.401Z,96311.11
2023-11-18T18:34:35.794Z,96308.81
2023-11-18T18:37:02.164Z,96292.25
2023-11-18T18:39:28.551Z,96301.34
2023-11-18T18:41:54.905Z,96309.22
2023-11-18T18:44:22.282Z,96296.59
2023-11-18T18:46:48.721Z,96304.94
2023-11-18T18:49:17.296Z,96297.48
2023-11-18T18:51:44.203Z,96288.64
2023-11-18T18:54:12.266Z,96286.58
2023-11-18T18:56:41.598Z,96282.05
2023-11-18T18:59:12.165Z,96281.66
2023-11-18T19:01:39.584Z,96281.14
2023-11-18T19:04:06.381Z,96291.12
2023-11-18T19:06:34.042Z,96288.20
2023-11-18T19:09:00.618Z,96292.81
2023-11-18T19:11:27.009Z,96291.80
2023-11-18T19:13:53.444Z,96288.20
2023-11-18T19:16:19.858Z,96290.98
2023-11-18T19:18:48.718Z,96286.58
2023-11-18T19:21:15.142Z,96272.16
2023-11-18T19:23:41.613Z,96279.59
2023-11-18T19:26:08.304Z,96264.12
2023-11-18T19:28:34.731Z,96266.64
2023-11-18T19:31:01.254Z,96250.17
2023-11-18T19:33:27.697Z,96253.54
2023-11-18T19:35:56.057Z,96234.87
2023-11-18T19:38:23.090Z,96222.59
2023-11-18T19:40:49.505Z,96216.58
2023-11-18T19:43:16.391Z,96215.01
2023-11-18T19:45:42.940Z,96198.46
2023-11-18T19:48:09.417Z,96198.30
2023-11-18T19:50:36.089Z,96189.08
2023-11-18T19:53:02.556Z,96191.64
2023-11-18T19:55:28.994Z,96190.01
2023-11-18T19:57:55.437Z,96192.60
2023-11-18T20:00:24.575Z,96196.77
2023-11-18T20:02:51.111Z,96191.27
2023-11-18T20:05:17.606Z,96194.90
2023-11-18T20:07:44.084Z,96199.46
2023-11-18T20:10:10.979Z,96204.64
2023-11-18T20:12:37.461Z,96207.65
2023-11-18T20:15:05.783Z,96210.04
2023-11-18T20:17:33.320Z,96206.05
2023-11-18T20:20:00.809Z,96201.54
2023-11-18T20:22:27.352Z,96190.70
2023-11-18T20:24:53.733Z,96183.69
2023-11-18T20:27:20.603Z,96178.31
2023-11-18T20:29:47.130Z,96148.45
2023-11-18T20:32:13.741Z,96156.03
2023-11-18T20:34:40.173Z,96138.65
2023-11-18T20:37:06.968Z,96128.20
2023-11-18T20:39:34.736Z,96120.35
2023-11-18T20:42:01.094Z,96113.13
2023-11-18T20:44:27.621Z,96102.84
2023-11-18T20:46:53.999Z,96083.91
2023-11-18T20:49:21.549Z,96084.52
2023-11-18T20:51:48.075Z,96084.05
2023-11-18T20:54:15.176Z,96084.60
2023-11-18T20:56:41.649Z,96079.75
2023-11-18T20:59:08.075Z,96065.93
2023-11-18T21:01:34.513Z,96071.06
2023-11-18T21:04:01.258Z,96051.85
2023-11-18T21:06:27.834Z,96054.15
2023-11-18T21:08:55.827Z,96058.86
2023-11-18T21:11:24.980Z,96058.63
2023-11-18T21:13:51.481Z,96046.26
2023-11-18T21:16:17.870Z,96041.56
2023-11-18T21:18:44.333Z,96029.95
2023-11-18T21:21:12.535Z,96018.11
2023-11-18T21:23:39.627Z,96010.38
2023-11-18T21:26:06.114Z,96001.59
2023-11-18T21:28:33.082Z,95993.98
2023-11-18T21:31:00.199Z,95989.60
2023-11-18T21:33:26.738Z,95980.69
2023-11-18T21:35:53.395Z,95967.40
2023-11-18T21:38:20.146Z,95962.01
2023-11-18T21:40:47.472Z,95949.55
2023-11-18T21:43:13.937Z,95946.02
2023-11-18T21:45:40.300Z,95941.34
2023-11-18T21:48:07.561Z,95940.50
2023-11-18T21:50:34.805Z,95937.12
2023-11-18T21:53:03.546Z,95937.52
2023-11-18T21:55:30.113Z,95937.75
2023-11-18T21:57:56.849Z,95919.05
2023-11-18T22:00:23.316Z,95919.98
2023-11-18T22:02:50.166Z,95915.70
2023-11-18T22:05:18.491Z,95917.48
2023-11-18T22:07:44.930Z,95917.09
2023-11-18T22:10:29.742Z,95925.09
2023-11-18T22:12:57.664Z,95935.70
2023-11-18T22:15:24.346Z,95934.92
2023-11-18T22:17:52.641Z,95934.47
2023-11-18T22:20:19.791Z,95930.20
2023-11-18T22:22:50.436Z,95934.85
2023-11-18T22:25:16.974Z,95932.16
2023-11-18T22:27:43.424Z,95931.31
2023-11-18T22:30:13.219Z,95920.95
2023-11-18T22:32:40.890Z,95911.31
2023-11-18T22:35:08.222Z,95935.35
2023-11-18T22:37:35.835Z,95937.29
2023-11-18T22:40:09.159Z,95937.60
2023-11-18T22:42:37.828Z,95937.30
2023-11-18T22:45:05.264Z,95931.79
2023-11-18T22:47:31.772Z,95917.48
2023-11-18T22:49:58.364Z,95913.90
2023-11-18T22:52:26.829Z,95913.05
2023-11-18T22:54:53.213Z,95898.37
2023-11-18T22:57:19.579Z,95908.29
2023-11-18T22:59:45.961Z,95902.39
2023-11-18T23:02:15.769Z,95895.39
2023-11-18T23:04:42.277Z,95882.41
2023-11-18T23:07:08.683Z,95889.71
2023-11-18T23:09:35.072Z,95894.50
2023-11-18T23:12:01.754Z,95887.27
2023-11-18T23:14:29.512Z,95887.36
2023-11-18T23:16:56.265Z,95878.52
2023-11-18T23:19:22.610Z,95886.53
2023-11-18T23:21:48.962Z,95881.70
2023-11-18T23:24:15.409Z,95883.78
2023-11-18T23:26:42.038Z,95876.63
2023-11-18T23:29:08.643Z,95863.29
2023-11-18T23:31:35.127Z,95864.65
2023-11-18T23:34:04.860Z,95863.19
2023-11-18T23:36:31.249Z,95844.30
2023-11-18T23:39:02.703Z,95846.97
2023-11-18T23:41:30.874Z,95850.22
2023-11-18T23:43:57.309Z,95846.61
2023-11-18T23:46:23.744Z,95844.78
2023-11-18T23:48:52.071Z,95837.48
2023-11-18T23:51:19.541Z,95843.17
2023-11-18T23:53:46.012Z,95844.95
2023-11-18T23:56:12.482Z,95845.56
2023-11-18T23:58:40.153Z,95842.73
